sensor_id;sensor_type;location;lat;lon;timestamp;temperature;humidity
4635;DHT22;2330;48.158;11.816;2023-07-24T00:00:01;20.50;94.80
4635;DHT22;2330;48.158;11.816;2023-07-24T00:02:28;20.60;94.90
4635;DHT22;2330;48.158;11.816;2023-07-24T00:04:55;20.60;95.50
4635;DHT22;2330;48.158;11.816;2023-07-24T00:07:21;20.60;95.50
4635;DHT22;2330;48.158;11.816;2023-07-24T00:09:49;20.60;96.10
4635;DHT22;2330;48.158;11.816;2023-07-24T00:12:16;20.70;96.30
4635;DHT22;2330;48.158;11.816;2023-07-24T00:14:43;20.70;96.10
4635;DHT22;2330;48.158;11.816;2023-07-24T00:17:09;20.80;96.10
4635;DHT22;2330;48.158;11.816;2023-07-24T00:19:36;20.90;96.00
4635;DHT22;2330;48.158;11.816;2023-07-24T00:22:03;20.80;96.20
4635;DHT22;2330;48.158;11.816;2023-07-24T00:24:31;20.70;96.80
4635;DHT22;2330;48.158;11.816;2023-07-24T00:26:58;20.60;97.10
4635;DHT22;2330;48.158;11.816;2023-07-24T00:29:25;20.60;97.00
4635;DHT22;2330;48.158;11.816;2023-07-24T00:31:51;20.70;97.20
4635;DHT22;2330;48.158;11.816;2023-07-24T00:34:18;20.70;97.20
4635;DHT22;2330;48.158;11.816;2023-07-24T00:36:45;20.80;97.10
4635;DHT22;2330;48.158;11.816;2023-07-24T00:39:14;20.70;97.40
4635;DHT22;2330;48.158;11.816;2023-07-24T00:41:41;20.60;97.60
4635;DHT22;2330;48.158;11.816;2023-07-24T00:44:08;20.60;98.10
4635;DHT22;2330;48.158;11.816;2023-07-24T00:46:35;20.50;98.40
4635;DHT22;2330;48.158;11.816;2023-07-24T00:49:02;20.60;98.50
4635;DHT22;2330;48.158;11.816;2023-07-24T00:51:30;20.60;98.50
4635;DHT22;2330;48.158;11.816;2023-07-24T00:54:02;20.60;98.30
4635;DHT22;2330;48.158;11.816;2023-07-24T00:56:30;20.70;98.20
4635;DHT22;2330;48.158;11.816;2023-07-24T00:59:00;20.70;98.20
4635;DHT22;2330;48.158;11.816;2023-07-24T01:01:27;20.80;97.90
4635;DHT22;2330;48.158;11.816;2023-07-24T01:03:57;20.80;98.00
4635;DHT22;2330;48.158;11.816;2023-07-24T01:06:24;20.70;98.00
4635;DHT22;2330;48.158;11.816;2023-07-24T01:08:51;20.70;98.10
4635;DHT22;2330;48.158;11.816;2023-07-24T01:11:21;20.70;98.20
4635;DHT22;2330;48.158;11.816;2023-07-24T01:14:04;20.70;98.20
4635;DHT22;2330;48.158;11.816;2023-07-24T01:16:38;20.70;98.30
4635;DHT22;2330;48.158;11.816;2023-07-24T01:19:15;20.60;98.50
4635;DHT22;2330;48.158;11.816;2023-07-24T01:22:02;20.50;98.50
4635;DHT22;2330;48.158;11.816;2023-07-24T01:24:48;20.60;98.50
4635;DHT22;2330;48.158;11.816;2023-07-24T01:27:23;20.60;98.50
4635;DHT22;2330;48.158;11.816;2023-07-24T01:29:51;20.60;98.50
4635;DHT22;2330;48.158;11.816;2023-07-24T01:32:18;20.60;98.50
4635;DHT22;2330;48.158;11.816;2023-07-24T01:34:46;20.60;98.50
4635;DHT22;2330;48.158;11.816;2023-07-24T01:37:13;20.50;98.50
4635;DHT22;2330;48.158;11.816;2023-07-24T01:39:40;20.50;98.50
4635;DHT22;2330;48.158;11.816;2023-07-24T01:42:08;20.40;98.50
4635;DHT22;2330;48.158;11.816;2023-07-24T01:44:35;20.30;98.50
4635;DHT22;2330;48.158;11.816;2023-07-24T01:47:02;20.30;98.50
4635;DHT22;2330;48.158;11.816;2023-07-24T01:49:29;20.20;98.50
4635;DHT22;2330;48.158;11.816;2023-07-24T01:51:56;20.20;98.50
4635;DHT22;2330;48.158;11.816;2023-07-24T01:54:24;20.20;98.50
4635;DHT22;2330;48.158;11.816;2023-07-24T01:56:51;20.20;98.50
4635;DHT22;2330;48.158;11.816;2023-07-24T01:59:18;20.20;98.50
4635;DHT22;2330;48.158;11.816;2023-07-24T02:01:45;20.20;98.50
4635;DHT22;2330;48.158;11.816;2023-07-24T02:04:12;20.30;98.50
4635;DHT22;2330;48.158;11.816;2023-07-24T02:06:41;20.20;98.50
4635;DHT22;2330;48.158;11.816;2023-07-24T02:09:08;20.30;98.50
4635;DHT22;2330;48.158;11.816;2023-07-24T02:11:35;20.30;98.50
4635;DHT22;2330;48.158;11.816;2023-07-24T02:14:02;20.30;98.50
4635;DHT22;2330;48.158;11.816;2023-07-24T02:16:29;20.30;98.50
4635;DHT22;2330;48.158;11.816;2023-07-24T02:18:56;20.10;98.50
4635;DHT22;2330;48.158;11.816;2023-07-24T02:21:23;19.90;98.50
4635;DHT22;2330;48.158;11.816;2023-07-24T02:23:49;19.70;98.50
4635;DHT22;2330;48.158;11.816;2023-07-24T02:26:16;19.50;98.50
4635;DHT22;2330;48.158;11.816;2023-07-24T02:28:43;19.50;98.50
4635;DHT22;2330;48.158;11.816;2023-07-24T02:31:10;19.50;98.50
4635;DHT22;2330;48.158;11.816;2023-07-24T02:33:37;19.50;98.50
4635;DHT22;2330;48.158;11.816;2023-07-24T02:36:04;19.40;98.50
4635;DHT22;2330;48.158;11.816;2023-07-24T02:38:31;19.30;98.50
4635;DHT22;2330;48.158;11.816;2023-07-24T02:40:58;19.10;98.50
4635;DHT22;2330;48.158;11.816;2023-07-24T02:43:24;19.10;98.50
4635;DHT22;2330;48.158;11.816;2023-07-24T02:45:51;19.20;98.50
4635;DHT22;2330;48.158;11.816;2023-07-24T02:48:18;19.20;98.50
4635;DHT22;2330;48.158;11.816;2023-07-24T02:50:47;19.00;98.50
4635;DHT22;2330;48.158;11.816;2023-07-24T02:53:15;18.80;98.50
4635;DHT22;2330;48.158;11.816;2023-07-24T02:55:42;18.70;98.50
4635;DHT22;2330;48.158;11.816;2023-07-24T02:58:12;18.80;98.50
4635;DHT22;2330;48.158;11.816;2023-07-24T03:00:39;18.90;98.50
4635;DHT22;2330;48.158;11.816;2023-07-24T03:03:06;19.00;98.50
4635;DHT22;2330;48.158;11.816;2023-07-24T03:05:36;19.20;98.50
4635;DHT22;2330;48.158;11.816;2023-07-24T03:08:03;19.20;98.50
4635;DHT22;2330;48.158;11.816;2023-07-24T03:10:29;19.20;98.50
4635;DHT22;2330;48.158;11.816;2023-07-24T03:12:56;19.40;98.50
4635;DHT22;2330;48.158;11.816;2023-07-24T03:15:23;19.40;98.50
4635;DHT22;2330;48.158;11.816;2023-07-24T03:17:50;19.40;98.50
4635;DHT22;2330;48.158;11.816;2023-07-24T03:20:18;19.30;98.50
4635;DHT22;2330;48.158;11.816;2023-07-24T03:22:45;19.40;98.50
4635;DHT22;2330;48.158;11.816;2023-07-24T03:25:13;19.40;98.50
4635;DHT22;2330;48.158;11.816;2023-07-24T03:27:39;19.40;98.50
4635;DHT22;2330;48.158;11.816;2023-07-24T03:30:06;19.40;98.50
4635;DHT22;2330;48.158;11.816;2023-07-24T03:32:34;19.00;98.50
4635;DHT22;2330;48.158;11.816;2023-07-24T03:35:01;18.60;98.50
4635;DHT22;2330;48.158;11.816;2023-07-24T03:37:28;18.40;98.50
4635;DHT22;2330;48.158;11.816;2023-07-24T03:39:55;18.10;98.50
4635;DHT22;2330;48.158;11.816;2023-07-24T03:42:30;17.90;98.50
4635;DHT22;2330;48.158;11.816;2023-07-24T03:44:57;17.80;98.50
4635;DHT22;2330;48.158;11.816;2023-07-24T03:47:24;17.70;98.50
4635;DHT22;2330;48.158;11.816;2023-07-24T03:49:51;17.80;98.50
4635;DHT22;2330;48.158;11.816;2023-07-24T03:52:18;17.90;98.50
4635;DHT22;2330;48.158;11.816;2023-07-24T03:54:45;17.90;98.50
4635;DHT22;2330;48.158;11.816;2023-07-24T03:57:12;17.90;98.50
4635;DHT22;2330;48.158;11.816;2023-07-24T03:59:39;17.90;98.50
4635;DHT22;2330;48.158;11.816;2023-07-24T04:02:06;17.90;98.50
4635;DHT22;2330;48.158;11.816;2023-07-24T04:04:36;17.90;98.50
4635;DHT22;2330;48.158;11.816;2023-07-24T04:07:04;17.90;98.50
4635;DHT22;2330;48.158;11.816;2023-07-24T04:09:31;17.90;98.50
4635;DHT22;2330;48.158;11.816;2023-07-24T04:11:58;17.90;98.50
4635;DHT22;2330;48.158;11.816;2023-07-24T04:14:24;18.00;98.50
4635;DHT22;2330;48.158;11.816;2023-07-24T04:16:51;18.00;98.50
4635;DHT22;2330;48.158;11.816;2023-07-24T04:19:18;17.90;98.50
4635;DHT22;2330;48.158;11.816;2023-07-24T04:21:45;17.90;98.50
4635;DHT22;2330;48.158;11.816;2023-07-24T04:24:12;17.90;98.50
4635;DHT22;2330;48.158;11.816;2023-07-24T04:26:39;17.90;98.50
4635;DHT22;2330;48.158;11.816;2023-07-24T04:29:06;17.80;98.50
4635;DHT22;2330;48.158;11.816;2023-07-24T04:31:34;17.80;98.50
4635;DHT22;2330;48.158;11.816;2023-07-24T04:34:00;17.80;98.50
4635;DHT22;2330;48.158;11.816;2023-07-24T04:36:27;17.90;98.50
4635;DHT22;2330;48.158;11.816;2023-07-24T04:38:54;18.10;98.50
4635;DHT22;2330;48.158;11.816;2023-07-24T04:41:21;18.10;98.50
4635;DHT22;2330;48.158;11.816;2023-07-24T04:43:48;18.20;98.50
4635;DHT22;2330;48.158;11.816;2023-07-24T04:46:15;18.30;98.50
4635;DHT22;2330;48.158;11.816;2023-07-24T04:48:42;18.40;98.50
4635;DHT22;2330;48.158;11.816;2023-07-24T04:51:08;18.50;98.50
4635;DHT22;2330;48.158;11.816;2023-07-24T04:53:35;18.40;98.50
4635;DHT22;2330;48.158;11.816;2023-07-24T04:56:02;18.50;98.50
4635;DHT22;2330;48.158;11.816;2023-07-24T04:58:29;18.60;98.50
4635;DHT22;2330;48.158;11.816;2023-07-24T05:00:55;18.70;98.50
4635;DHT22;2330;48.158;11.816;2023-07-24T05:03:22;18.50;98.50
4635;DHT22;2330;48.158;11.816;2023-07-24T05:05:54;18.60;98.50
4635;DHT22;2330;48.158;11.816;2023-07-24T05:08:22;18.70;98.50
4635;DHT22;2330;48.158;11.816;2023-07-24T05:10:56;18.80;98.50
4635;DHT22;2330;48.158;11.816;2023-07-24T05:13:23;19.00;98.50
4635;DHT22;2330;48.158;11.816;2023-07-24T05:15:50;19.10;98.50
4635;DHT22;2330;48.158;11.816;2023-07-24T05:18:17;19.00;98.50
4635;DHT22;2330;48.158;11.816;2023-07-24T05:20:47;19.00;98.50
4635;DHT22;2330;48.158;11.816;2023-07-24T05:23:14;19.00;98.50
4635;DHT22;2330;48.158;11.816;2023-07-24T05:25:41;19.10;98.50
4635;DHT22;2330;48.158;11.816;2023-07-24T05:28:08;19.10;98.50
4635;DHT22;2330;48.158;11.816;2023-07-24T05:30:36;19.00;98.50
4635;DHT22;2330;48.158;11.816;2023-07-24T05:33:02;19.00;98.50
4635;DHT22;2330;48.158;11.816;2023-07-24T05:35:29;19.00;98.50
4635;DHT22;2330;48.158;11.816;2023-07-24T05:37:56;19.00;98.50
4635;DHT22;2330;48.158;11.816;2023-07-24T05:40:23;19.10;98.50
4635;DHT22;2330;48.158;11.816;2023-07-24T05:42:50;19.10;98.50
4635;DHT22;2330;48.158;11.816;2023-07-24T05:45:16;19.10;98.50
4635;DHT22;2330;48.158;11.816;2023-07-24T05:47:43;19.20;98.50
4635;DHT22;2330;48.158;11.816;2023-07-24T05:50:10;19.60;98.50
4635;DHT22;2330;48.158;11.816;2023-07-24T05:52:39;19.90;98.50
4635;DHT22;2330;48.158;11.816;2023-07-24T05:55:07;20.10;98.50
4635;DHT22;2330;48.158;11.816;2023-07-24T05:57:34;20.20;98.50
4635;DHT22;2330;48.158;11.816;2023-07-24T06:00:05;20.20;98.50
4635;DHT22;2330;48.158;11.816;2023-07-24T06:02:32;20.20;98.50
4635;DHT22;2330;48.158;11.816;2023-07-24T06:04:59;20.20;98.50
4635;DHT22;2330;48.158;11.816;2023-07-24T06:07:25;20.30;98.50
4635;DHT22;2330;48.158;11.816;2023-07-24T06:09:52;20.30;98.50
4635;DHT22;2330;48.158;11.816;2023-07-24T06:12:19;20.50;98.50
4635;DHT22;2330;48.158;11.816;2023-07-24T06:14:46;20.70;98.50
4635;DHT22;2330;48.158;11.816;2023-07-24T06:17:12;21.10;98.50
4635;DHT22;2330;48.158;11.816;2023-07-24T06:19:39;21.50;98.50
4635;DHT22;2330;48.158;11.816;2023-07-24T06:22:07;21.80;98.50
4635;DHT22;2330;48.158;11.816;2023-07-24T06:24:33;22.10;98.50
4635;DHT22;2330;48.158;11.816;2023-07-24T06:27:00;22.30;98.50
4635;DHT22;2330;48.158;11.816;2023-07-24T06:29:27;22.50;98.50
4635;DHT22;2330;48.158;11.816;2023-07-24T06:31:54;22.20;98.50
4635;DHT22;2330;48.158;11.816;2023-07-24T06:34:21;22.10;98.50
4635;DHT22;2330;48.158;11.816;2023-07-24T06:36:48;22.10;98.50
4635;DHT22;2330;48.158;11.816;2023-07-24T06:39:15;22.20;98.50
4635;DHT22;2330;48.158;11.816;2023-07-24T06:41:42;22.30;98.50
4635;DHT22;2330;48.158;11.816;2023-07-24T06:44:09;22.60;98.50
4635;DHT22;2330;48.158;11.816;2023-07-24T06:46:35;22.90;98.50
4635;DHT22;2330;48.158;11.816;2023-07-24T06:49:02;23.30;98.10
4635;DHT22;2330;48.158;11.816;2023-07-24T06:51:29;23.40;95.90
4635;DHT22;2330;48.158;11.816;2023-07-24T06:53:56;23.60;96.60
4635;DHT22;2330;48.158;11.816;2023-07-24T06:56:23;23.90;94.70
4635;DHT22;2330;48.158;11.816;2023-07-24T06:58:49;24.10;93.40
4635;DHT22;2330;48.158;11.816;2023-07-24T07:01:16;24.30;93.10
4635;DHT22;2330;48.158;11.816;2023-07-24T07:03:43;24.50;92.10
4635;DHT22;2330;48.158;11.816;2023-07-24T07:06:10;24.60;92.00
4635;DHT22;2330;48.158;11.816;2023-07-24T07:08:53;24.90;92.10
4635;DHT22;2330;48.158;11.816;2023-07-24T07:11:20;25.20;91.60
4635;DHT22;2330;48.158;11.816;2023-07-24T07:13:47;24.80;90.50
4635;DHT22;2330;48.158;11.816;2023-07-24T07:16:14;24.50;90.90
4635;DHT22;2330;48.158;11.816;2023-07-24T07:18:43;24.60;91.10
4635;DHT22;2330;48.158;11.816;2023-07-24T07:21:10;25.00;90.40
4635;DHT22;2330;48.158;11.816;2023-07-24T07:23:36;25.20;90.30
4635;DHT22;2330;48.158;11.816;2023-07-24T07:26:03;25.80;89.20
4635;DHT22;2330;48.158;11.816;2023-07-24T07:28:30;26.00;87.70
4635;DHT22;2330;48.158;11.816;2023-07-24T07:30:57;26.20;87.30
4635;DHT22;2330;48.158;11.816;2023-07-24T07:33:24;26.30;85.90
4635;DHT22;2330;48.158;11.816;2023-07-24T07:35:51;26.00;85.90
4635;DHT22;2330;48.158;11.816;2023-07-24T07:38:18;25.80;85.30
4635;DHT22;2330;48.158;11.816;2023-07-24T07:40:45;25.60;87.70
4635;DHT22;2330;48.158;11.816;2023-07-24T07:43:12;25.20;86.30
4635;DHT22;2330;48.158;11.816;2023-07-24T07:45:38;25.00;88.30
4635;DHT22;2330;48.158;11.816;2023-07-24T07:48:05;24.80;88.90
4635;DHT22;2330;48.158;11.816;2023-07-24T07:50:32;24.70;90.10
4635;DHT22;2330;48.158;11.816;2023-07-24T07:52:59;24.50;90.10
4635;DHT22;2330;48.158;11.816;2023-07-24T07:55:26;24.20;90.80
4635;DHT22;2330;48.158;11.816;2023-07-24T07:57:53;23.90;91.40
4635;DHT22;2330;48.158;11.816;2023-07-24T08:00:20;23.70;91.80
4635;DHT22;2330;48.158;11.816;2023-07-24T08:02:48;23.70;93.00
4635;DHT22;2330;48.158;11.816;2023-07-24T08:05:15;23.60;93.80
4635;DHT22;2330;48.158;11.816;2023-07-24T08:07:47;23.50;93.80
4635;DHT22;2330;48.158;11.816;2023-07-24T08:10:14;23.20;94.30
4635;DHT22;2330;48.158;11.816;2023-07-24T08:12:43;23.20;94.70
4635;DHT22;2330;48.158;11.816;2023-07-24T08:15:11;23.00;96.40
4635;DHT22;2330;48.158;11.816;2023-07-24T08:17:38;22.70;97.50
4635;DHT22;2330;48.158;11.816;2023-07-24T08:20:05;22.70;98.00
4635;DHT22;2330;48.158;11.816;2023-07-24T08:22:33;22.80;98.10
4635;DHT22;2330;48.158;11.816;2023-07-24T08:24:59;23.00;97.40
4635;DHT22;2330;48.158;11.816;2023-07-24T08:27:26;23.00;97.80
4635;DHT22;2330;48.158;11.816;2023-07-24T08:29:53;23.10;98.40
4635;DHT22;2330;48.158;11.816;2023-07-24T08:32:20;23.30;97.80
4635;DHT22;2330;48.158;11.816;2023-07-24T08:34:47;23.40;96.90
4635;DHT22;2330;48.158;11.816;2023-07-24T08:37:14;23.40;97.10
4635;DHT22;2330;48.158;11.816;2023-07-24T08:39:41;23.50;97.10
4635;DHT22;2330;48.158;11.816;2023-07-24T08:42:11;23.50;97.40
4635;DHT22;2330;48.158;11.816;2023-07-24T08:44:39;23.60;96.20
4635;DHT22;2330;48.158;11.816;2023-07-24T08:47:10;23.40;95.30
4635;DHT22;2330;48.158;11.816;2023-07-24T08:49:39;23.10;94.50
4635;DHT22;2330;48.158;11.816;2023-07-24T08:52:09;22.80;95.30
4635;DHT22;2330;48.158;11.816;2023-07-24T08:54:49;22.80;95.70
4635;DHT22;2330;48.158;11.816;2023-07-24T08:57:16;22.60;95.90
4635;DHT22;2330;48.158;11.816;2023-07-24T08:59:43;22.60;95.90
4635;DHT22;2330;48.158;11.816;2023-07-24T09:02:10;22.70;96.50
4635;DHT22;2330;48.158;11.816;2023-07-24T09:04:37;22.80;96.10
4635;DHT22;2330;48.158;11.816;2023-07-24T09:07:04;22.80;96.10
4635;DHT22;2330;48.158;11.816;2023-07-24T09:09:31;22.90;96.10
4635;DHT22;2330;48.158;11.816;2023-07-24T09:11:58;22.90;95.80
4635;DHT22;2330;48.158;11.816;2023-07-24T09:14:28;22.90;95.30
4635;DHT22;2330;48.158;11.816;2023-07-24T09:17:11;22.90;95.40
4635;DHT22;2330;48.158;11.816;2023-07-24T09:19:38;22.90;95.50
4635;DHT22;2330;48.158;11.816;2023-07-24T09:24:36;22.80;94.50
4635;DHT22;2330;48.158;11.816;2023-07-24T09:27:05;22.70;94.90
4635;DHT22;2330;48.158;11.816;2023-07-24T09:29:34;22.60;95.00
4635;DHT22;2330;48.158;11.816;2023-07-24T09:32:01;22.70;95.10
4635;DHT22;2330;48.158;11.816;2023-07-24T09:34:28;22.40;95.90
4635;DHT22;2330;48.158;11.816;2023-07-24T09:36:55;22.40;96.50
4635;DHT22;2330;48.158;11.816;2023-07-24T09:39:23;22.40;96.40
4635;DHT22;2330;48.158;11.816;2023-07-24T09:41:50;22.60;96.50
4635;DHT22;2330;48.158;11.816;2023-07-24T09:44:17;22.80;95.80
4635;DHT22;2330;48.158;11.816;2023-07-24T09:46:44;23.00;95.00
4635;DHT22;2330;48.158;11.816;2023-07-24T09:49:28;23.10;95.00
4635;DHT22;2330;48.158;11.816;2023-07-24T09:51:58;23.20;95.10
4635;DHT22;2330;48.158;11.816;2023-07-24T09:54:32;23.70;94.20
4635;DHT22;2330;48.158;11.816;2023-07-24T09:57:00;24.20;93.00
4635;DHT22;2330;48.158;11.816;2023-07-24T09:59:45;24.80;90.40
4635;DHT22;2330;48.158;11.816;2023-07-24T10:02:12;25.20;88.30
4635;DHT22;2330;48.158;11.816;2023-07-24T10:04:40;25.10;88.50
4635;DHT22;2330;48.158;11.816;2023-07-24T10:07:07;25.40;88.10
4635;DHT22;2330;48.158;11.816;2023-07-24T10:09:36;25.80;88.00
4635;DHT22;2330;48.158;11.816;2023-07-24T10:12:04;25.90;86.00
4635;DHT22;2330;48.158;11.816;2023-07-24T10:14:31;26.20;87.30
4635;DHT22;2330;48.158;11.816;2023-07-24T10:16:58;26.50;86.10
4635;DHT22;2330;48.158;11.816;2023-07-24T10:19:35;26.30;85.50
4635;DHT22;2330;48.158;11.816;2023-07-24T10:22:03;26.70;84.40
4635;DHT22;2330;48.158;11.816;2023-07-24T10:24:30;27.10;82.90
4635;DHT22;2330;48.158;11.816;2023-07-24T10:27:07;27.30;82.00
4635;DHT22;2330;48.158;11.816;2023-07-24T10:29:35;27.30;81.90
4635;DHT22;2330;48.158;11.816;2023-07-24T10:32:03;27.50;82.70
4635;DHT22;2330;48.158;11.816;2023-07-24T10:34:39;27.70;82.20
4635;DHT22;2330;48.158;11.816;2023-07-24T10:37:08;27.80;80.60
4635;DHT22;2330;48.158;11.816;2023-07-24T10:39:39;27.40;79.90
4635;DHT22;2330;48.158;11.816;2023-07-24T10:42:10;27.60;81.20
4635;DHT22;2330;48.158;11.816;2023-07-24T10:44:37;27.70;79.30
4635;DHT22;2330;48.158;11.816;2023-07-24T10:47:04;27.90;79.00
4635;DHT22;2330;48.158;11.816;2023-07-24T10:49:31;28.00;76.70
4635;DHT22;2330;48.158;11.816;2023-07-24T10:51:58;28.10;77.40
4635;DHT22;2330;48.158;11.816;2023-07-24T10:54:25;28.20;78.00
4635;DHT22;2330;48.158;11.816;2023-07-24T10:56:59;27.90;78.60
4635;DHT22;2330;48.158;11.816;2023-07-24T10:59:38;27.70;80.90
4635;DHT22;2330;48.158;11.816;2023-07-24T11:02:07;27.40;81.50
4635;DHT22;2330;48.158;11.816;2023-07-24T11:04:34;27.10;82.10
4635;DHT22;2330;48.158;11.816;2023-07-24T11:07:01;27.10;81.80
4635;DHT22;2330;48.158;11.816;2023-07-24T11:09:39;27.30;81.70
4635;DHT22;2330;48.158;11.816;2023-07-24T11:12:14;27.60;81.60
4635;DHT22;2330;48.158;11.816;2023-07-24T11:14:51;27.90;80.90
4635;DHT22;2330;48.158;11.816;2023-07-24T11:17:20;28.30;81.40
4635;DHT22;2330;48.158;11.816;2023-07-24T11:19:48;28.50;79.90
4635;DHT22;2330;48.158;11.816;2023-07-24T11:22:15;28.90;80.00
4635;DHT22;2330;48.158;11.816;2023-07-24T11:24:43;28.90;79.30
4635;DHT22;2330;48.158;11.816;2023-07-24T11:27:16;28.90;79.30
4635;DHT22;2330;48.158;11.816;2023-07-24T11:29:49;29.00;78.20
4635;DHT22;2330;48.158;11.816;2023-07-24T11:32:20;28.70;78.90
4635;DHT22;2330;48.158;11.816;2023-07-24T11:34:48;28.90;79.40
4635;DHT22;2330;48.158;11.816;2023-07-24T11:37:15;29.00;79.00
4635;DHT22;2330;48.158;11.816;2023-07-24T11:39:42;28.90;78.50
4635;DHT22;2330;48.158;11.816;2023-07-24T11:42:09;28.80;78.70
4635;DHT22;2330;48.158;11.816;2023-07-24T11:44:36;28.90;79.20
4635;DHT22;2330;48.158;11.816;2023-07-24T11:47:06;29.10;79.70
4635;DHT22;2330;48.158;11.816;2023-07-24T11:49:33;29.10;78.50
4635;DHT22;2330;48.158;11.816;2023-07-24T11:52:04;28.80;78.90
4635;DHT22;2330;48.158;11.816;2023-07-24T11:54:35;28.90;78.10
4635;DHT22;2330;48.158;11.816;2023-07-24T11:57:02;29.20;77.70
4635;DHT22;2330;48.158;11.816;2023-07-24T11:59:37;29.20;76.80
4635;DHT22;2330;48.158;11.816;2023-07-24T12:02:04;29.10;77.10
4635;DHT22;2330;48.158;11.816;2023-07-24T12:04:31;29.00;76.40
4635;DHT22;2330;48.158;11.816;2023-07-24T12:06:58;28.80;77.40
4635;DHT22;2330;48.158;11.816;2023-07-24T12:09:29;28.90;76.80
4635;DHT22;2330;48.158;11.816;2023-07-24T12:11:58;28.70;77.50
4635;DHT22;2330;48.158;11.816;2023-07-24T12:14:25;28.50;77.00
4635;DHT22;2330;48.158;11.816;2023-07-24T12:17:03;28.40;78.20
4635;DHT22;2330;48.158;11.816;2023-07-24T12:19:30;28.20;77.80
4635;DHT22;2330;48.158;11.816;2023-07-24T12:21:57;27.90;77.60
4635;DHT22;2330;48.158;11.816;2023-07-24T12:24:24;27.80;77.20
4635;DHT22;2330;48.158;11.816;2023-07-24T12:26:50;28.00;76.70
4635;DHT22;2330;48.158;11.816;2023-07-24T12:29:17;28.10;77.30
4635;DHT22;2330;48.158;11.816;2023-07-24T12:31:44;27.90;77.50
4635;DHT22;2330;48.158;11.816;2023-07-24T12:34:11;27.40;78.00
4635;DHT22;2330;48.158;11.816;2023-07-24T12:36:37;27.10;79.80
4635;DHT22;2330;48.158;11.816;2023-07-24T12:39:04;26.60;81.30
4635;DHT22;2330;48.158;11.816;2023-07-24T12:41:31;26.20;82.70
4635;DHT22;2330;48.158;11.816;2023-07-24T12:43:58;25.70;84.60
4635;DHT22;2330;48.158;11.816;2023-07-24T12:46:26;25.00;91.30
4635;DHT22;2330;48.158;11.816;2023-07-24T12:48:53;23.70;98.50
4635;DHT22;2330;48.158;11.816;2023-07-24T12:51:20;22.80;98.50
4635;DHT22;2330;48.158;11.816;2023-07-24T12:53:47;22.50;98.50
4635;DHT22;2330;48.158;11.816;2023-07-24T12:56:28;22.30;98.50
4635;DHT22;2330;48.158;11.816;2023-07-24T12:58:55;22.40;98.50
4635;DHT22;2330;48.158;11.816;2023-07-24T13:01:22;22.50;98.50
4635;DHT22;2330;48.158;11.816;2023-07-24T13:03:50;22.40;98.50
4635;DHT22;2330;48.158;11.816;2023-07-24T13:06:17;22.50;98.50
4635;DHT22;2330;48.158;11.816;2023-07-24T13:08:44;22.60;98.50
4635;DHT22;2330;48.158;11.816;2023-07-24T13:11:11;22.60;98.50
4635;DHT22;2330;48.158;11.816;2023-07-24T13:13:37;22.60;98.50
4635;DHT22;2330;48.158;11.816;2023-07-24T13:16:04;22.30;98.50
4635;DHT22;2330;48.158;11.816;2023-07-24T13:18:31;22.20;98.50
4635;DHT22;2330;48.158;11.816;2023-07-24T13:20:58;22.20;98.50
4635;DHT22;2330;48.158;11.816;2023-07-24T13:23:25;22.00;98.50
4635;DHT22;2330;48.158;11.816;2023-07-24T13:25:52;21.80;98.50
4635;DHT22;2330;48.158;11.816;2023-07-24T13:28:19;21.60;98.50
4635;DHT22;2330;48.158;11.816;2023-07-24T13:30:46;21.60;98.50
4635;DHT22;2330;48.158;11.816;2023-07-24T13:33:13;21.50;98.50
4635;DHT22;2330;48.158;11.816;2023-07-24T13:35:40;21.40;98.50
4635;DHT22;2330;48.158;11.816;2023-07-24T13:38:08;21.30;98.50
4635;DHT22;2330;48.158;11.816;2023-07-24T13:40:35;21.30;98.50
4635;DHT22;2330;48.158;11.816;2023-07-24T13:43:02;21.30;98.50
4635;DHT22;2330;48.158;11.816;2023-07-24T13:45:30;21.30;98.50
4635;DHT22;2330;48.158;11.816;2023-07-24T13:47:57;21.40;98.50
4635;DHT22;2330;48.158;11.816;2023-07-24T13:50:24;21.60;98.50
4635;DHT22;2330;48.158;11.816;2023-07-24T13:52:51;21.70;98.50
4635;DHT22;2330;48.158;11.816;2023-07-24T13:55:18;22.00;98.50
4635;DHT22;2330;48.158;11.816;2023-07-24T13:57:45;22.30;98.50
4635;DHT22;2330;48.158;11.816;2023-07-24T14:00:12;22.40;98.50
4635;DHT22;2330;48.158;11.816;2023-07-24T14:02:39;22.30;98.50
4635;DHT22;2330;48.158;11.816;2023-07-24T14:05:06;22.30;98.50
4635;DHT22;2330;48.158;11.816;2023-07-24T14:07:33;22.20;98.50
4635;DHT22;2330;48.158;11.816;2023-07-24T14:10:00;22.40;98.50
4635;DHT22;2330;48.158;11.816;2023-07-24T14:12:27;22.60;98.50
4635;DHT22;2330;48.158;11.816;2023-07-24T14:14:54;22.90;98.50
4635;DHT22;2330;48.158;11.816;2023-07-24T14:17:20;23.20;98.50
4635;DHT22;2330;48.158;11.816;2023-07-24T14:19:47;23.40;98.40
4635;DHT22;2330;48.158;11.816;2023-07-24T14:22:16;23.60;97.80
4635;DHT22;2330;48.158;11.816;2023-07-24T14:24:42;23.60;96.70
4635;DHT22;2330;48.158;11.816;2023-07-24T14:27:09;23.60;96.80
4635;DHT22;2330;48.158;11.816;2023-07-24T14:29:36;23.70;96.30
4635;DHT22;2330;48.158;11.816;2023-07-24T14:32:03;23.60;98.50
4635;DHT22;2330;48.158;11.816;2023-07-24T14:34:30;23.90;96.60
4635;DHT22;2330;48.158;11.816;2023-07-24T14:36:57;24.40;96.40
4635;DHT22;2330;48.158;11.816;2023-07-24T14:39:24;24.80;95.10
4635;DHT22;2330;48.158;11.816;2023-07-24T14:41:51;25.00;95.80
4635;DHT22;2330;48.158;11.816;2023-07-24T14:44:17;25.30;94.50
4635;DHT22;2330;48.158;11.816;2023-07-24T14:46:44;25.40;92.90
4635;DHT22;2330;48.158;11.816;2023-07-24T14:49:11;25.40;93.70
4635;DHT22;2330;48.158;11.816;2023-07-24T14:51:38;25.30;93.20
4635;DHT22;2330;48.158;11.816;2023-07-24T14:54:04;25.60;92.40
4635;DHT22;2330;48.158;11.816;2023-07-24T14:56:33;25.70;92.60
4635;DHT22;2330;48.158;11.816;2023-07-24T14:59:20;26.10;90.80
4635;DHT22;2330;48.158;11.816;2023-07-24T15:01:47;26.50;89.10
4635;DHT22;2330;48.158;11.816;2023-07-24T15:04:13;26.90;88.70
4635;DHT22;2330;48.158;11.816;2023-07-24T15:06:40;26.80;87.40
4635;DHT22;2330;48.158;11.816;2023-07-24T15:09:07;26.70;87.70
4635;DHT22;2330;48.158;11.816;2023-07-24T15:11:34;26.70;87.90
4635;DHT22;2330;48.158;11.816;2023-07-24T15:14:01;26.80;89.10
4635;DHT22;2330;48.158;11.816;2023-07-24T15:16:27;26.40;89.10
4635;DHT22;2330;48.158;11.816;2023-07-24T15:18:54;26.10;90.80
4635;DHT22;2330;48.158;11.816;2023-07-24T15:21:21;26.00;91.10
4635;DHT22;2330;48.158;11.816;2023-07-24T15:23:48;25.90;91.50
4635;DHT22;2330;48.158;11.816;2023-07-24T15:26:18;25.70;92.90
4635;DHT22;2330;48.158;11.816;2023-07-24T15:28:45;26.00;92.60
4635;DHT22;2330;48.158;11.816;2023-07-24T15:31:12;25.90;93.50
4635;DHT22;2330;48.158;11.816;2023-07-24T15:33:39;25.90;93.10
4635;DHT22;2330;48.158;11.816;2023-07-24T15:36:05;25.60;93.40
4635;DHT22;2330;48.158;11.816;2023-07-24T15:38:33;25.40;94.80
4635;DHT22;2330;48.158;11.816;2023-07-24T15:40:59;25.30;95.50
4635;DHT22;2330;48.158;11.816;2023-07-24T15:43:26;25.10;96.30
4635;DHT22;2330;48.158;11.816;2023-07-24T15:45:53;25.10;96.60
4635;DHT22;2330;48.158;11.816;2023-07-24T15:48:20;24.90;97.00
4635;DHT22;2330;48.158;11.816;2023-07-24T15:50:52;24.50;98.20